Time;durP1;ratioP1;P1;durP2;ratioP2;P2;SDS_P1;SDS_P2;PMS_P1;PMS_P2;Temp;Humidity;BMP_temperature;BMP_pressure;BME280_temperature;BME280_humidity;BME280_pressure;Samples;Min_cycle;Max_cycle;Signal;HPM_P1;HPM_P2
2022/11/06 00:00:58;;;;;;;35.20;20.47;;;;;;;7.76;100.00;99164.59;2172157;81;20937;-85
2022/11/06 00:03:58;;;;;;;36.20;21.57;;;;;;;7.74;100.00;99164.97;2171617;81;20933;-84
2022/11/06 00:06:59;;;;;;;40.57;20.67;;;;;;;7.74;100.00;99170.58;2171536;81;21020;-85
2022/11/06 00:09:59;;;;;;;34.73;22.17;;;;;;;7.71;100.00;99173.09;2171517;82;20953;-85
2022/11/06 00:13:00;;;;;;;48.87;22.70;;;;;;;7.68;100.00;99172.59;2172092;81;20941;-85
2022/11/06 00:16:00;;;;;;;33.87;20.03;;;;;;;7.67;100.00;99176.02;2171686;81;21344;-85
2022/11/06 00:19:01;;;;;;;43.30;20.67;;;;;;;7.65;100.00;99175.10;2171524;81;20921;-85
2022/11/06 00:22:01;;;;;;;38.00;21.37;;;;;;;7.66;100.00;99179.45;2171975;81;20962;-85
2022/11/06 00:25:01;;;;;;;35.33;19.90;;;;;;;7.66;100.00;99188.13;2171703;81;20979;-85
2022/11/06 00:28:02;;;;;;;44.03;22.47;;;;;;;7.67;100.00;99188.59;2171172;81;20969;-85
2022/11/06 00:31:02;;;;;;;38.80;20.67;;;;;;;7.65;100.00;99186.80;2171561;81;20960;-84
2022/11/06 00:34:02;;;;;;;36.30;20.70;;;;;;;7.64;100.00;99190.23;2171190;81;20933;-84
2022/11/06 00:37:03;;;;;;;36.47;20.70;;;;;;;7.62;100.00;99183.69;2170624;81;21341;-84
2022/11/06 00:40:03;;;;;;;39.67;21.17;;;;;;;7.61;100.00;99186.23;2171275;81;21004;-83
2022/11/06 00:43:04;;;;;;;46.13;21.33;;;;;;;7.62;100.00;99189.30;2171492;81;20929;-85
2022/11/06 00:46:04;;;;;;;34.03;21.77;;;;;;;7.60;100.00;99192.27;2170156;81;21000;-84
2022/11/06 00:49:05;;;;;;;40.33;21.27;;;;;;;7.59;100.00;99196.59;2170342;81;21341;-84
2022/11/06 00:52:05;;;;;;;40.60;22.53;;;;;;;7.57;100.00;99204.75;2171306;81;20959;-84
2022/11/06 00:55:05;;;;;;;40.80;23.47;;;;;;;7.57;100.00;99208.66;2171455;81;20953;-84
2022/11/06 00:58:06;;;;;;;43.80;22.97;;;;;;;7.56;100.00;99210.79;2172281;81;20944;-84
2022/11/06 01:01:06;;;;;;;44.53;23.57;;;;;;;7.55;100.00;99215.52;2171824;82;20985;-85
2022/11/06 01:04:06;;;;;;;34.17;20.37;;;;;;;7.57;100.00;99217.74;2171248;81;20981;-84
2022/11/06 01:07:07;;;;;;;40.70;21.23;;;;;;;7.58;100.00;99218.20;2170285;81;21282;-85
2022/11/06 01:10:07;;;;;;;36.67;21.67;;;;;;;7.59;100.00;99217.38;2171128;81;20989;-84
2022/11/06 01:13:08;;;;;;;41.50;21.37;;;;;;;7.64;100.00;99209.71;2171369;81;20905;-84
2022/11/06 01:16:08;;;;;;;31.23;20.50;;;;;;;7.65;100.00;99211.05;2171444;81;20985;-85
2022/11/06 01:19:09;;;;;;;35.50;20.63;;;;;;;7.64;100.00;99209.30;2171582;81;20949;-85
2022/11/06 01:22:09;;;;;;;36.30;20.27;;;;;;;7.63;100.00;99210.13;2171445;81;20941;-85
2022/11/06 01:25:09;;;;;;;37.87;20.33;;;;;;;7.63;100.00;99210.13;2171431;81;20965;-85
2022/11/06 01:28:10;;;;;;;36.63;20.13;;;;;;;7.62;100.00;99213.56;2171495;81;20937;-85
2022/11/06 01:31:10;;;;;;;34.97;21.00;;;;;;;7.62;100.00;99212.69;2171637;81;20956;-84
2022/11/06 01:34:11;;;;;;;38.93;19.87;;;;;;;7.62;100.00;99212.27;2172802;81;21309;-85
2022/11/06 01:37:11;;;;;;;34.67;21.07;;;;;;;7.64;100.00;99211.89;2173408;81;20925;-85
2022/11/06 01:40:11;;;;;;;39.47;20.20;;;;;;;7.64;100.00;99210.59;2173387;81;21001;-84
2022/11/06 01:43:12;;;;;;;37.80;20.37;;;;;;;7.63;100.00;99214.02;2173610;81;20921;-84
2022/11/06 01:46:12;;;;;;;37.13;20.30;;;;;;;7.60;100.00;99211.34;2173235;81;20968;-83
2022/11/06 01:49:13;;;;;;;39.63;21.43;;;;;;;7.64;100.00;99214.48;2173457;81;20937;-84
2022/11/06 01:52:13;;;;;;;31.70;20.33;;;;;;;7.64;100.00;99208.41;2173448;81;21001;-84
2022/11/06 01:55:14;;;;;;;30.83;19.60;;;;;;;7.63;100.00;99218.34;2173620;82;20965;-84
2022/11/06 01:58:14;;;;;;;35.60;19.87;;;;;;;7.61;100.00;99217.41;2173780;81;20929;-85
2022/11/06 02:01:14;;;;;;;32.07;19.73;;;;;;;7.62;100.00;99221.78;2173715;81;20980;-84
2022/11/06 02:04:15;;;;;;;34.33;21.17;;;;;;;7.63;100.00;99221.83;2173358;81;20984;-83
2022/11/06 02:07:15;;;;;;;35.67;19.97;;;;;;;7.66;100.00;99220.61;2173659;81;20972;-85
2022/11/06 02:10:16;;;;;;;35.33;20.27;;;;;;;7.67;100.00;99220.20;2173675;81;21028;-85
2022/11/06 02:13:16;;;;;;;41.13;20.90;;;;;;;7.67;100.00;99226.69;2173686;81;20980;-85
2022/11/06 02:16:16;;;;;;;35.10;21.17;;;;;;;7.64;100.00;99227.48;2173599;81;20941;-85
2022/11/06 02:19:17;;;;;;;39.90;22.40;;;;;;;7.66;100.00;99228.83;2173477;82;20961;-85
2022/11/06 02:22:17;;;;;;;35.93;21.63;;;;;;;7.58;100.00;99227.30;2173620;82;20926;-85
2022/11/06 02:25:18;;;;;;;38.43;21.00;;;;;;;7.56;100.00;99225.08;2173448;81;20998;-85
2022/11/06 02:28:18;;;;;;;40.40;20.37;;;;;;;7.55;100.00;99218.53;2173291;82;21355;-84
2022/11/06 02:31:18;;;;;;;40.00;23.07;;;;;;;7.53;100.00;99221.09;2173416;81;20917;-85
2022/11/06 02:34:19;;;;;;;39.57;22.10;;;;;;;7.50;100.00;99223.59;2173661;81;20957;-84
2022/11/06 02:37:19;;;;;;;32.97;21.43;;;;;;;7.47;100.00;99219.61;2171305;81;20917;-83
2022/11/06 02:40:20;;;;;;;40.67;22.00;;;;;;;7.46;100.00;99220.86;2171058;81;21028;-85
2022/11/06 02:43:20;;;;;;;37.77;22.13;;;;;;;7.44;100.00;99219.52;2171291;81;21273;-85
2022/11/06 02:46:20;;;;;;;35.93;23.17;;;;;;;7.46;100.00;99219.56;2171259;81;20957;-85
2022/11/06 02:49:21;;;;;;;44.07;24.63;;;;;;;7.44;100.00;99220.81;2170723;81;21353;-85
2022/11/06 02:52:21;;;;;;;44.80;25.00;;;;;;;7.43;100.00;99224.66;2170689;81;20961;-85
2022/11/06 02:55:22;;;;;;;42.30;26.50;;;;;;;7.37;100.00;99222.77;2171470;81;20929;-84
2022/11/06 02:58:22;;;;;;;44.53;26.83;;;;;;;7.32;100.00;99229.53;2171137;81;20933;-85
2022/11/06 03:01:22;;;;;;;36.43;24.27;;;;;;;7.30;100.00;99229.91;2170966;81;20973;-85
2022/11/06 03:04:23;;;;;;;41.53;25.93;;;;;;;7.26;100.00;99237.13;2171622;81;20936;-85
2022/11/06 03:07:23;;;;;;;42.23;25.33;;;;;;;7.25;100.00;99244.45;2171234;81;21012;-84
2022/11/06 03:10:24;;;;;;;43.13;27.30;;;;;;;7.23;100.00;99248.30;2170404;81;21052;-84
2022/11/06 03:13:24;;;;;;;47.17;26.87;;;;;;;7.22;100.00;99250.86;2171081;81;20934;-84
2022/11/06 03:16:24;;;;;;;49.53;26.03;;;;;;;7.17;100.00;99248.11;2171500;81;20980;-84
2022/11/06 03:19:25;;;;;;;42.33;25.23;;;;;;;7.13;100.00;99245.38;2170777;81;20925;-84
2022/11/06 03:22:25;;;;;;;42.53;24.27;;;;;;;7.10;100.00;99245.27;2170851;81;20941;-84
2022/11/06 03:25:26;;;;;;;35.97;23.37;;;;;;;7.09;100.00;99246.11;2171513;81;21096;-85
2022/11/06 03:28:26;;;;;;;38.70;22.30;;;;;;;7.11;100.00;99250.93;2170917;81;20957;-85
2022/11/06 03:31:26;;;;;;;38.90;22.97;;;;;;;7.09;100.00;99248.28;2171152;81;20921;-85
2022/11/06 03:34:27;;;;;;;42.70;23.47;;;;;;;7.10;100.00;99248.75;2173009;81;21033;-85
2022/11/06 03:37:27;;;;;;;41.47;24.33;;;;;;;7.10;100.00;99246.57;2173569;81;20929;-84
2022/11/06 03:40:28;;;;;;;38.20;23.63;;;;;;;7.07;100.00;99241.28;2173274;81;20969;-84
2022/11/06 03:43:28;;;;;;;37.83;24.73;;;;;;;7.03;100.00;99239.89;2173355;81;20921;-84
2022/11/06 03:46:28;;;;;;;37.60;23.63;;;;;;;7.02;100.00;99250.22;2173354;81;20989;-84
2022/11/06 03:49:29;;;;;;;39.27;24.67;;;;;;;7.00;100.00;99253.19;2173523;81;20938;-84
2022/11/06 03:52:29;;;;;;;44.37;24.53;;;;;;;7.02;100.00;99256.30;2173094;81;21380;-84
2022/11/06 03:55:30;;;;;;;40.47;23.37;;;;;;;6.96;100.00;99257.39;2173496;81;20925;-84
2022/11/06 03:58:30;;;;;;;41.57;23.53;;;;;;;6.89;100.00;99261.88;2173487;81;20922;-84
2022/11/06 04:01:31;;;;;;;41.03;22.67;;;;;;;6.83;100.00;99260.38;2173697;81;20933;-84
2022/11/06 04:04:31;;;;;;;38.23;22.37;;;;;;;6.79;100.00;99257.64;2173860;81;20945;-85
2022/11/06 04:07:31;;;;;;;36.97;22.40;;;;;;;6.74;100.00;99257.90;2173532;81;21348;-84
2022/11/06 04:13:57;;;;;;;35.20;21.43;;;;;;;6.62;100.00;99274.81;2173766;82;20934;-83
2022/11/06 04:16:57;;;;;;;46.70;23.93;;;;;;;6.55;100.00;99277.15;2173631;81;20985;-83
2022/11/06 04:19:58;;;;;;;46.63;25.23;;;;;;;6.56;100.00;99275.02;2173633;81;20917;-83
2022/11/06 04:22:58;;;;;;;48.23;25.57;;;;;;;6.53;100.00;99273.62;2173848;81;20949;-84
2022/11/06 04:29:18;;;;;;;51.43;27.90;;;;;;;6.50;100.00;99276.98;2173637;82;20992;-85
2022/11/06 04:32:18;;;;;;;47.03;26.70;;;;;;;6.55;100.00;99274.55;2173145;81;20922;-85
2022/11/06 04:35:18;;;;;;;42.50;25.20;;;;;;;6.55;100.00;99274.55;2170492;81;21353;-85
2022/11/06 04:38:19;;;;;;;47.43;27.03;;;;;;;6.60;100.00;99282.08;2170393;81;20929;-85
2022/11/06 04:41:19;;;;;;;42.70;26.87;;;;;;;6.63;100.00;99279.17;2171648;82;21033;-84
2022/11/06 04:44:20;;;;;;;46.20;25.90;;;;;;;6.63;100.00;99278.29;2171756;81;20957;-83
2022/11/06 04:47:20;;;;;;;43.67;25.90;;;;;;;6.64;100.00;99282.65;2171494;81;21359;-84
2022/11/06 04:50:20;;;;;;;42.17;24.97;;;;;;;6.63;100.00;99280.89;2171625;81;20953;-84
2022/11/06 04:53:21;;;;;;;39.17;25.00;;;;;;;6.64;100.00;99282.23;2171242;81;20926;-84
2022/11/06 04:56:21;;;;;;;37.90;25.00;;;;;;;6.65;100.00;99281.41;2171623;81;20950;-85
2022/11/06 04:59:22;;;;;;;42.20;26.00;;;;;;;6.63;100.00;99279.17;2171950;81;20953;-84
2022/11/06 05:02:22;;;;;;;43.23;24.87;;;;;;;6.61;100.00;99282.55;2172992;81;20897;-84
2022/11/06 05:05:22;;;;;;;39.50;24.87;;;;;;;6.58;100.00;99282.02;2172689;81;20937;-84
2022/11/06 05:08:23;;;;;;;53.23;24.53;;;;;;;6.57;100.00;99283.27;2171785;82;20965;-84
2022/11/06 05:11:23;;;;;;;46.83;25.53;;;;;;;6.56;100.00;99284.09;2171483;81;21361;-84
2022/11/06 05:14:24;;;;;;;42.87;24.47;;;;;;;6.57;100.00;99284.56;2170611;81;20933;-84
2022/11/06 05:17:24;;;;;;;37.83;22.30;;;;;;;6.58;100.00;99290.22;2172130;81;20986;-84
2022/11/06 05:20:24;;;;;;;39.50;23.27;;;;;;;6.58;100.00;99295.41;2172853;81;21293;-84
2022/11/06 05:23:25;;;;;;;44.13;26.57;;;;;;;6.57;100.00;99294.94;2171702;81;20977;-84
2022/11/06 05:26:25;;;;;;;39.50;25.10;;;;;;;6.58;100.00;99300.59;2172794;81;20964;-84
2022/11/06 05:29:26;;;;;;;40.33;24.63;;;;;;;6.57;100.00;99300.13;2171805;81;21340;-84
2022/11/06 05:32:26;;;;;;;37.10;21.97;;;;;;;6.58;100.00;99301.48;2170731;81;20984;-84
2022/11/06 05:35:26;;;;;;;43.53;24.00;;;;;;;6.58;100.00;99304.07;2171897;81;20940;-84
2022/11/06 05:38:27;;;;;;;45.37;23.90;;;;;;;6.59;100.00;99307.55;2171735;81;20937;-84
2022/11/06 05:41:27;;;;;;;39.20;22.47;;;;;;;6.59;100.00;99305.84;2170927;81;21417;-84
2022/11/06 05:44:28;;;;;;;45.20;22.83;;;;;;;6.55;100.00;99303.08;2171943;81;20961;-84
2022/11/06 05:47:28;;;;;;;45.53;22.37;;;;;;;6.53;100.00;99305.63;2171784;81;20993;-84
2022/11/06 05:50:28;;;;;;;44.70;24.03;;;;;;;6.52;100.00;99315.95;2172145;81;20945;-83
2022/11/06 05:53:29;;;;;;;46.63;23.80;;;;;;;6.48;100.00;99321.85;2171048;81;20949;-84
2022/11/06 05:56:29;;;;;;;35.77;22.87;;;;;;;6.49;100.00;99323.20;2172053;81;20941;-85
2022/11/06 05:59:32;;;;;;;39.83;23.23;;;;;;;6.46;100.00;99319.62;2172121;81;20937;-85
2022/11/06 06:02:33;;;;;;;40.80;22.87;;;;;;;6.41;100.00;99325.94;2172472;81;20904;-83
2022/11/06 06:05:33;;;;;;;37.27;22.50;;;;;;;6.41;100.00;99325.94;2170799;81;20968;-82
2022/11/06 06:08:34;;;;;;;38.47;22.93;;;;;;;6.36;100.00;99320.59;2172589;81;20972;-83
2022/11/06 06:11:34;;;;;;;43.30;21.97;;;;;;;6.38;100.00;99322.82;2169843;81;21076;-82
2022/11/06 06:14:34;;;;;;;40.27;22.67;;;;;;;6.41;100.00;99318.57;2171853;81;21009;-82
2022/11/06 06:17:35;;;;;;;47.97;22.87;;;;;;;6.42;100.00;99324.22;2170396;81;20926;-82
2022/11/06 06:20:35;;;;;;;37.00;21.80;;;;;;;6.40;100.00;99325.47;2171419;82;21301;-82
2022/11/06 06:23:35;;;;;;;33.43;21.60;;;;;;;6.41;100.00;99331.13;2170389;81;20937;-82
2022/11/06 06:26:36;;;;;;;40.53;22.53;;;;;;;6.43;100.00;99329.47;2170490;81;20984;-83
2022/11/06 06:29:36;;;;;;;37.00;22.57;;;;;;;6.43;100.00;99335.95;2171212;81;20952;-83
2022/11/06 06:32:37;;;;;;;40.27;21.30;;;;;;;6.41;100.00;99330.23;2170106;82;21352;-83
2022/11/06 06:35:37;;;;;;;23.87;18.90;;;;;;;6.42;100.00;99330.70;2171074;82;20989;-83
2022/11/06 06:38:38;;;;;;;28.37;18.63;;;;;;;6.36;100.00;99337.44;2171255;81;20972;-83
2022/11/06 06:41:38;;;;;;;28.87;19.83;;;;;;;6.32;99.69;99342.46;2171058;81;20997;-84
2022/11/06 06:44:39;;;;;;;32.33;20.07;;;;;;;6.32;99.97;99332.97;2173279;82;20917;-82
2022/11/06 06:47:39;;;;;;;28.70;20.20;;;;;;;6.36;99.85;99341.33;2170159;81;20953;-83
2022/11/06 06:50:40;;;;;;;34.17;21.40;;;;;;;6.41;100.00;99339.31;2170256;81;20929;-82
2022/11/06 06:53:40;;;;;;;27.60;19.33;;;;;;;6.50;100.00;99339.23;2170998;81;20992;-83
2022/11/06 06:56:40;;;;;;;103.20;26.27;;;;;;;6.65;99.46;99342.78;2172084;81;20929;-81
2022/11/06 06:59:41;;;;;;;112.30;26.63;;;;;;;6.65;99.46;99342.78;2172012;81;21329;-82
2022/11/06 07:02:41;;;;;;;83.37;29.00;;;;;;;6.74;100.00;99344.40;2170003;81;20973;-82
2022/11/06 07:05:42;;;;;;;158.87;35.37;;;;;;;7.01;100.00;99346.67;2170293;81;20968;-82
2022/11/06 07:08:42;;;;;;;179.47;36.23;;;;;;;7.08;99.77;99352.95;2171522;81;20948;-83
2022/11/06 07:11:42;;;;;;;155.80;33.67;;;;;;;7.06;98.63;99354.61;2171265;81;21012;-82
2022/11/06 07:14:43;;;;;;;170.87;32.63;;;;;;;6.98;98.30;99360.84;2170426;81;20929;-82
2022/11/06 07:17:43;;;;;;;204.40;33.60;;;;;;;6.92;98.08;99363.20;2172138;81;20981;-82
2022/11/06 07:20:44;;;;;;;210.97;34.40;;;;;;;6.82;98.18;99363.71;2171451;81;20960;-82
2022/11/06 07:23:45;;;;;;;151.90;32.67;;;;;;;6.76;98.36;99369.10;2172668;81;20969;-82
2022/11/06 07:26:44;;;;;;;141.83;29.27;;;;;;;6.69;98.67;99368.88;2170328;81;21009;-82
2022/11/06 07:29:45;;;;;;;135.73;30.43;;;;;;;6.71;99.35;99365.93;2170469;81;20930;-82
2022/11/06 07:32:45;;;;;;;135.87;29.27;;;;;;;6.79;99.72;99358.83;2172411;81;20957;-82
2022/11/06 07:35:46;;;;;;;131.13;30.10;;;;;;;6.80;99.20;99357.59;2170358;82;20949;-83
2022/11/06 07:38:46;;;;;;;128.13;29.63;;;;;;;6.79;98.33;99360.13;2170451;81;21048;-82
2022/11/06 07:41:46;;;;;;;112.70;27.63;;;;;;;6.85;98.84;99359.05;2171513;82;21020;-82
2022/11/06 07:44:47;;;;;;;76.30;25.77;;;;;;;6.95;99.10;99358.56;2171864;81;21332;-82
2022/11/06 07:47:47;;;;;;;69.13;25.27;;;;;;;7.07;99.05;99360.69;2171430;81;20992;-82
2022/11/06 07:50:48;;;;;;;93.97;20.37;;;;;;;7.23;98.68;99357.77;2170713;81;20977;-84
2022/11/06 07:53:48;;;;;;;80.63;19.10;;;;;;;8.33;100.00;99357.31;2172214;81;20957;-82
2022/11/06 07:56:48;;;;;;;143.03;21.13;;;;;;;9.05;100.00;99362.84;2172713;81;20964;-83
2022/11/06 07:59:49;;;;;;;57.43;20.37;;;;;;;9.31;100.00;99366.11;2173179;81;20909;-83
2022/11/06 08:02:49;;;;;;;87.67;20.37;;;;;;;9.75;100.00;99358.97;2171367;81;20942;-82
2022/11/06 08:05:50;;;;;;;31.73;17.87;;;;;;;10.14;100.00;99353.76;2172097;81;20917;-87
2022/11/06 08:08:50;;;;;;;56.53;22.47;;;;;;;11.06;100.00;99350.41;2171927;81;20956;-84
2022/11/06 08:11:51;;;;;;;95.17;22.00;;;;;;;12.39;100.00;99348.18;2171544;82;20965;-84
2022/11/06 08:14:51;;;;;;;49.18;22.45;;;;;;;13.43;100.00;99346.70;2171544;81;21265;-83
2022/11/06 08:17:51;;;;;;;94.05;22.48;;;;;;;14.16;100.00;99343.31;2171746;81;21333;-84
2022/11/06 08:20:52;;;;;;;73.87;22.25;;;;;;;14.56;95.85;99345.71;2173206;81;20917;-84
2022/11/06 08:23:52;;;;;;;152.72;24.20;;;;;;;14.86;93.68;99352.84;2170913;81;20934;-85
2022/11/06 08:26:53;;;;;;;67.72;22.35;;;;;;;14.99;88.10;99354.63;2172699;82;21392;-81
2022/11/06 08:29:53;;;;;;;91.12;23.30;;;;;;;15.27;87.35;99353.80;2170168;81;21337;-82
2022/11/06 08:32:54;;;;;;;108.35;24.07;;;;;;;14.19;80.12;99355.14;2170738;81;21266;-81
2022/11/06 08:35:54;;;;;;;70.05;22.02;;;;;;;13.09;79.61;99366.03;2170427;81;21036;-83
2022/11/06 08:38:54;;;;;;;73.33;21.68;;;;;;;12.25;78.12;99365.45;2171442;81;21004;-82
2022/11/06 08:41:55;;;;;;;36.35;20.30;;;;;;;11.60;81.21;99375.76;2172267;81;21008;-81
2022/11/06 08:44:55;;;;;;;74.62;22.15;;;;;;;11.28;82.88;99369.99;2170268;81;20922;-81
2022/11/06 08:47:55;;;;;;;53.73;23.18;;;;;;;11.12;84.91;99368.81;2171022;81;20995;-82
2022/11/06 08:50:56;;;;;;;58.78;23.40;;;;;;;11.06;86.23;99368.70;2170122;81;20933;-81
2022/11/06 08:53:57;;;;;;;44.27;22.48;;;;;;;11.08;86.44;99370.48;2169989;81;21360;-81
2022/11/06 08:56:57;;;;;;;48.38;23.02;;;;;;;11.03;87.04;99374.75;2170100;81;20933;-81
2022/11/06 08:59:57;;;;;;;52.88;24.82;;;;;;;11.09;87.83;99380.51;2170559;82;20953;-81
2022/11/06 09:02:58;;;;;;;61.58;24.45;;;;;;;10.74;82.66;99388.56;2170312;81;20945;-81
2022/11/06 09:05:58;;;;;;;37.80;23.50;;;;;;;10.23;82.91;99382.23;2170687;81;21013;-81
2022/11/06 09:08:59;;;;;;;52.73;24.60;;;;;;;10.09;86.39;99390.60;2170418;82;21025;-81
2022/11/06 09:12:00;;;;;;;35.60;21.85;;;;;;;10.13;85.50;99391.13;2171943;81;21016;-81
2022/11/06 09:15:00;;;;;;;41.68;23.25;;;;;;;10.18;87.33;99384.28;2170802;81;21332;-80
2022/11/06 09:18:01;;;;;;;45.52;22.93;;;;;;;10.42;88.70;99378.77;2171103;81;20961;-81
2022/11/06 09:21:01;;;;;;;36.68;23.22;;;;;;;10.57;89.17;99376.91;2169929;81;20937;-81
2022/11/06 09:24:01;;;;;;;33.45;22.73;;;;;;;10.72;89.13;99377.63;2170932;81;20906;-81
2022/11/06 09:27:02;;;;;;;40.75;22.58;;;;;;;10.82;88.85;99380.88;2170548;82;20960;-81
2022/11/06 09:30:02;;;;;;;30.95;20.08;;;;;;;10.93;87.98;99375.86;2170274;82;20910;-81
2022/11/06 09:33:03;;;;;;;26.17;18.67;;;;;;;10.94;85.87;99377.61;2170102;81;20957;-81
2022/11/06 09:36:03;;;;;;;27.37;19.62;;;;;;;10.87;85.86;99367.91;2172402;81;20973;-81
2022/11/06 09:39:04;;;;;;;32.85;21.77;;;;;;;10.94;88.15;99364.55;2172642;81;21262;-82
2022/11/06 09:42:04;;;;;;;36.38;24.45;;;;;;;11.04;86.96;99356.92;2171049;81;21392;-80
2022/11/06 09:45:04;;;;;;;35.88;22.30;;;;;;;10.97;84.25;99352.44;2172133;81;20898;-80
2022/11/06 09:48:05;;;;;;;27.45;20.45;;;;;;;10.68;82.77;99354.50;2171841;81;20953;-80
2022/11/06 09:51:05;;;;;;;33.73;21.10;;;;;;;10.52;82.42;99356.35;2172231;81;21309;-81
2022/11/06 09:54:06;;;;;;;34.00;21.70;;;;;;;10.32;82.22;99361.55;2171620;81;20973;-81
2022/11/06 09:57:06;;;;;;;28.75;20.35;;;;;;;10.18;82.87;99356.89;2171407;81;20958;-81
2022/11/06 10:00:06;;;;;;;24.98;19.75;;;;;;;10.09;83.57;99358.00;2171735;81;21199;-81
2022/11/06 10:03:07;;;;;;;30.77;20.27;;;;;;;10.04;83.91;99354.83;2173287;81;21387;-80
2022/11/06 10:06:07;;;;;;;33.28;21.33;;;;;;;10.09;84.23;99347.56;2170761;82;20985;-81
2022/11/06 10:09:08;;;;;;;28.38;20.48;;;;;;;10.17;84.02;99344.69;2172101;81;20973;-80
2022/11/06 10:12:08;;;;;;;27.07;19.45;;;;;;;10.05;83.50;99341.82;2172440;81;21428;-80
2022/11/06 10:15:08;;;;;;;23.22;17.55;;;;;;;9.95;84.14;99339.86;2171731;81;20914;-80
2022/11/06 10:18:09;;;;;;;26.68;17.12;;;;;;;10.03;84.45;99340.91;2171357;81;20965;-80
2022/11/06 10:21:09;;;;;;;28.62;18.17;;;;;;;10.12;84.26;99331.98;2171725;81;20938;-81
2022/11/06 10:24:10;;;;;;;24.75;17.95;;;;;;;10.17;83.92;99335.56;2173122;81;20937;-81
2022/11/06 10:27:10;;;;;;;23.18;17.55;;;;;;;10.21;84.43;99332.20;2173072;81;21012;-80
2022/11/06 10:30:10;;;;;;;21.80;16.70;;;;;;;10.28;84.45;99331.03;2173485;81;21341;-80
2022/11/06 10:33:11;;;;;;;24.02;16.80;;;;;;;10.33;84.32;99334.61;2172564;82;20933;-80
2022/11/06 10:36:12;;;;;;;22.55;16.67;;;;;;;10.36;84.45;99332.06;2171959;81;20969;-80
2022/11/06 10:39:12;;;;;;;20.55;15.08;;;;;;;10.40;84.52;99325.67;2173001;81;20926;-80
2022/11/06 10:42:12;;;;;;;21.25;15.28;;;;;;;10.52;84.21;99328.52;2172837;81;20965;-79
2022/11/06 10:45:13;;;;;;;21.73;15.20;;;;;;;10.60;84.11;99330.40;2173183;81;20929;-80
2022/11/06 10:48:13;;;;;;;23.73;15.10;;;;;;;10.72;84.34;99325.41;2172873;81;20937;-80
2022/11/06 10:51:13;;;;;;;19.70;13.85;;;;;;;10.89;83.81;99325.72;2172681;81;20905;-80
2022/11/06 10:54:14;;;;;;;20.77;13.18;;;;;;;11.04;82.99;99326.00;2171905;81;20925;-80
2022/11/06 10:57:14;;;;;;;23.52;14.58;;;;;;;11.14;82.86;99321.38;2173094;81;20976;-79
2022/11/06 11:00:14;;;;;;;20.50;13.00;;;;;;;11.36;81.94;99320.03;2171399;81;21348;-80
2022/11/06 11:03:15;;;;;;;19.65;13.45;;;;;;;11.44;81.26;99311.46;2171889;81;20957;-80
2022/11/06 11:06:15;;;;;;;19.35;14.40;;;;;;;11.60;81.43;99310.39;2172798;81;20922;-80
2022/11/06 11:09:16;;;;;;;20.52;13.85;;;;;;;11.84;80.81;99307.28;2171447;81;21317;-80
2022/11/06 11:12:16;;;;;;;29.95;18.50;;;;;;;11.92;79.69;99305.22;2170984;81;21396;-81
2022/11/06 11:15:17;;;;;;;33.38;18.00;;;;;;;11.82;78.90;99301.16;2171564;81;20964;-80
2022/11/06 11:18:17;;;;;;;29.75;18.50;;;;;;;11.67;77.89;99295.24;2171687;81;20981;-79
2022/11/06 11:21:17;;;;;;;27.82;18.80;;;;;;;11.30;78.32;99293.38;2170169;81;20937;-80
2022/11/06 11:24:18;;;;;;;28.27;17.82;;;;;;;11.17;79.54;99289.65;2168808;81;20965;-80
2022/11/06 11:27:18;;;;;;;30.92;17.67;;;;;;;11.16;79.72;99280.48;2169420;81;21324;-80
2022/11/06 11:30:18;;;;;;;36.95;25.77;;;;;;;10.98;79.34;99278.44;2170186;81;20882;-80
2022/11/06 11:33:19;;;;;;;30.88;19.92;;;;;;;10.80;80.10;99277.70;2171442;81;20929;-80
2022/11/06 11:36:19;;;;;;;29.25;21.42;;;;;;;10.64;80.28;99282.19;2170751;81;21419;-81
2022/11/06 11:39:20;;;;;;;28.90;19.82;;;;;;;10.50;80.69;99275.83;2170262;81;20976;-81
2022/11/06 11:42:20;;;;;;;33.33;20.80;;;;;;;10.38;81.30;99270.34;2170248;81;21028;-81
2022/11/06 11:45:21;;;;;;;32.80;20.40;;;;;;;10.76;81.49;99265.86;2171049;81;20942;-82
2022/11/06 11:48:21;;;;;;;26.52;17.65;;;;;;;10.57;80.73;99268.57;2170915;81;20937;-81
2022/11/06 11:51:21;;;;;;;29.45;18.57;;;;;;;10.32;81.51;99264.58;2170837;81;20941;-82
2022/11/06 11:54:28;;;;;;;35.63;19.87;;;;;;;10.08;81.60;99266.25;2171610;81;20925;-81
2022/11/06 11:57:25;;;;;;;31.55;18.27;;;;;;;10.00;82.87;99268.24;2170682;81;21050;-80
2022/11/06 12:00:25;;;;;;;27.20;16.37;;;;;;;9.98;82.58;99268.21;2171395;81;20964;-80
2022/11/06 12:03:26;;;;;;;26.60;17.95;;;;;;;10.01;82.58;99269.58;2171111;81;21265;-80
2022/11/06 12:06:26;;;;;;;29.25;17.35;;;;;;;9.95;82.93;99259.02;2169897;81;21040;-79
2022/11/06 12:09:27;;;;;;;29.12;16.32;;;;;;;10.08;83.90;99255.81;2169873;81;21312;-79
2022/11/06 12:12:28;;;;;;;23.40;14.63;;;;;;;10.25;83.49;99257.91;2171161;81;20993;-79
2022/11/06 12:15:27;;;;;;;30.17;16.75;;;;;;;10.28;82.98;99257.97;2171040;81;20980;-80
2022/11/06 12:18:28;;;;;;;33.90;16.32;;;;;;;10.17;82.52;99253.39;2170727;81;20960;-80
2022/11/06 12:21:29;;;;;;;36.83;16.90;;;;;;;10.15;82.90;99248.56;2170544;82;21084;-80
2022/11/06 12:24:29;;;;;;;28.38;16.70;;;;;;;10.17;83.23;99250.78;2171335;81;20940;-80
2022/11/06 12:27:30;;;;;;;26.25;15.95;;;;;;;10.25;83.57;99250.08;2169345;82;21024;-79
2022/11/06 12:30:31;;;;;;;29.25;16.52;;;;;;;10.31;83.68;99250.20;2171039;81;20921;-79
2022/11/06 12:33:32;;;;;;;23.73;15.65;;;;;;;10.34;83.07;99248.95;2171203;81;20949;-79
2022/11/06 12:36:38;;;;;;;22.15;15.32;;;;;;;10.31;82.94;99251.08;2170720;81;21012;-79
2022/11/06 12:39:32;;;;;;;24.92;15.28;;;;;;;10.35;83.28;99245.08;2170895;81;21017;-81
2022/11/06 12:42:32;;;;;;;26.80;15.70;;;;;;;10.34;83.29;99239.40;2171599;81;21063;-82
2022/11/06 12:49:04;;;;;;;25.40;16.60;;;;;;;10.30;82.95;99231.06;2172634;81;20938;-82
2022/11/06 12:52:04;;;;;;;24.80;15.47;;;;;;;10.33;83.33;99229.81;2172995;81;20965;-81
2022/11/06 12:55:05;;;;;;;23.13;14.20;;;;;;;10.32;83.00;99229.36;2172397;81;20968;-82
2022/11/06 12:58:05;;;;;;;23.73;15.20;;;;;;;10.35;83.09;99233.75;2170984;81;20927;-82
2022/11/06 13:01:05;;;;;;;25.48;13.53;;;;;;;10.36;82.83;99236.81;2172952;81;20961;-80
2022/11/06 13:04:06;;;;;;;26.65;15.08;;;;;;;10.39;83.19;99232.96;2171953;81;21293;-80
2022/11/06 13:07:06;;;;;;;21.68;14.98;;;;;;;10.39;83.39;99235.14;2172130;81;20949;-80
2022/11/06 13:10:07;;;;;;;29.43;14.27;;;;;;;10.43;83.01;99232.20;2170188;81;20969;-80
2022/11/06 13:13:07;;;;;;;25.80;14.05;;;;;;;10.44;83.39;99224.40;2172110;81;21456;-80
2022/11/06 13:16:07;;;;;;;28.00;15.18;;;;;;;10.45;82.99;99225.28;2172294;82;20992;-80
2022/11/06 13:19:08;;;;;;;25.10;14.00;;;;;;;10.47;83.14;99231.41;2172730;81;20952;-80
2022/11/06 13:22:08;;;;;;;23.27;14.23;;;;;;;10.48;83.00;99228.82;2171455;81;20937;-80
2022/11/06 13:25:09;;;;;;;22.75;13.15;;;;;;;10.45;82.90;99230.07;2171384;81;20953;-80
2022/11/06 13:28:09;;;;;;;23.50;14.38;;;;;;;10.44;82.80;99227.44;2169975;81;20905;-79
2022/11/06 13:31:09;;;;;;;25.97;13.83;;;;;;;10.44;83.36;99223.52;2172821;81;20973;-80
2022/11/06 13:34:10;;;;;;;16.52;13.65;;;;;;;10.45;83.20;99218.75;2171283;82;20965;-80
2022/11/06 13:37:10;;;;;;;21.05;13.30;;;;;;;10.42;83.22;99217.39;2173754;81;20957;-81
2022/11/06 13:40:11;;;;;;;25.27;14.35;;;;;;;10.38;83.38;99220.77;2171490;82;20961;-80
2022/11/06 13:43:11;;;;;;;25.48;14.20;;;;;;;10.38;83.37;99218.16;2170972;81;21470;-80
2022/11/06 13:46:12;;;;;;;26.63;14.90;;;;;;;10.32;83.78;99214.13;2170836;81;20961;-80
2022/11/06 13:49:12;;;;;;;23.45;15.65;;;;;;;10.32;83.78;99214.13;2171218;81;20950;-82
2022/11/06 13:52:12;;;;;;;60.13;17.57;;;;;;;10.26;83.79;99208.80;2170513;81;20930;-80
2022/11/06 13:55:13;;;;;;;27.00;16.83;;;;;;;10.27;84.17;99209.25;2170999;82;20925;-81
2022/11/06 13:58:13;;;;;;;25.67;18.07;;;;;;;10.25;84.32;99203.13;2170190;81;21353;-80